Hovedside
METAR-TAF:

METAR-TAF

Lufthavner :

Nouakchott internasjonale lufthavn

Nouakchott, Mauritania

breddegrad: 18-18-36N, lengdegrad: 015-58-11W, høyde over havet: 3 m

Gjeldene værobservasjon

Denne rapporten ble laget for 49 minutter siden, klokken 17:00 UTC
Vind 8 kt fra Nord-nordøst
Temperatur 32°C
Luftfuktighet 7%
Trykk 1013 hPa
Sikt 10 km eller mer
ingen skyer under 1500 m og ingen bygeskyer

METAR: GQNO 121700Z 03008KT CAVOK 32/M08 Q1013 NOSIG

Tid: 17:49 (17:49 UTC)

Varsel

Denne rapporten ble laget for 6 timer og 49 minutter siden, klokken 11:00 UTC
Varsel gyldig fra 12. klokken 12 UTC til 13. klokken 18 UTC
Vind 15 kt fra Øst
Sikt: 8000 m
Blir
fra 12. klokken 17 UTC til 12. klokken 20 UTC
Vind 10 kt fra Nord
Blir
fra 13. klokken 07 UTC til 13. klokken 10 UTC
Vind 14 kt fra Øst

TAF: GQNO 121100Z 1212/1318 08015KT 8000 NSC BECMG 1217/1220 36010KT BECMG 1307/1310 09014KT

Værobservasjoner og værvarsel for over 4000 flyplasser (METAR- og TAF-rapporter).

Tilgjengelige stasjoner er representert av de røde og gule prikkene på kartet.

Hold musepekeren over prikken for å se navnet på stasjonen.

Klikk så for å se værobservasjoner og -varsler.

For å forandre kartet kan du klikke på den grønne knappen med svart kryss for å zoome inn, på den grønne knappen med strek for å zoome ut, eller på de grønne pilene for å se tilstøtende kart.


METAR-TAF: